< Typhoon 196626 1966 Season Typhoon 196628 >
Typhoon 196627 (JUNE)
General InformationTrack Information on Google Maps || Disaster Info.ResourceGoogle EarthGE AnimationAtom FeedGeoJSON
Detalied Best Track (Time Zone = UTC)
Year Month Day Hour Lat. Long. Pressure (hPa) Wind (kt) Class Image Chart
1966 9 18 18 11.0 160.0 1006 0 2 -- Chart
1966 9 19 00 11.0 159.0 1006 0 2 -- Chart
1966 9 19 06 10.5 158.0 1006 0 2 -- Chart
1966 9 19 12 10.2 156.7 1006 0 2 -- Chart
1966 9 19 18 10.0 155.5 1006 0 2 -- Chart
1966 9 20 00 10.0 154.0 1006 0 2 -- Chart
1966 9 20 06 10.1 152.8 1004 0 2 -- Chart
1966 9 20 12 10.2 151.8 1004 0 2 -- Chart
1966 9 20 18 10.5 150.7 1004 0 2 -- Chart
1966 9 21 00 10.7 149.2 1004 0 2 -- Chart
1966 9 21 06 10.9 148.0 1004 0 2 -- Chart
1966 9 21 12 10.9 147.0 1004 0 2 -- Chart
1966 9 21 18 11.1 145.8 1002 0 2 -- Chart
1966 9 22 00 11.2 144.7 1002 0 2 -- Chart
1966 9 22 06 11.3 144.0 998 0 2 -- Chart
1966 9 22 12 11.5 143.4 998 0 9 -- Chart
1966 9 22 18 11.5 142.6 994 0 9 -- Chart
1966 9 23 00 11.7 142.2 990 0 9 -- Chart
1966 9 23 06 12.4 142.4 986 0 9 -- Chart
1966 9 23 12 13.9 142.2 992 0 9 -- Chart
1966 9 23 18 15.1 142.1 996 0 9 -- Chart
1966 9 24 00 16.2 141.8 998 0 9 -- Chart
1966 9 24 06 17.2 140.9 990 0 9 -- Chart
1966 9 24 12 19.2 139.9 990 0 9 -- Chart
1966 9 24 18 19.0 138.4 990 0 9 -- Chart
1966 9 25 00 19.4 137.6 988 0 9 -- Chart
1966 9 25 06 19.4 137.2 988 0 9 -- Chart
1966 9 25 12 19.1 137.2 988 0 9 -- Chart
1966 9 25 18 19.2 137.7 986 0 9 -- Chart
1966 9 26 00 19.9 138.1 983 0 9 -- Chart
1966 9 26 06 20.5 138.9 982 0 9 -- Chart
1966 9 26 12 21.1 139.8 982 0 9 -- Chart
1966 9 26 18 22.1 140.4 982 0 9 -- Chart
1966 9 27 00 23.2 141.1 980 0 9 -- Chart
1966 9 27 06 24.6 141.9 976 0 9 -- Chart
1966 9 27 12 26.0 142.9 976 0 9 -- Chart
1966 9 27 18 27.9 144.0 976 0 9 -- Chart
1966 9 28 00 29.6 146.1 976 0 9 -- Chart
1966 9 28 06 32.0 147.0 976 0 9 -- Chart
1966 9 28 12 34.5 149.5 976 0 9 -- Chart
1966 9 28 18 36.8 152.5 976 0 9 -- Chart
1966 9 29 00 39.0 155.5 976 0 9 -- Chart
1966 9 29 06 42.5 159.5 980 0 9 -- Chart
1966 9 29 12 47.1 164.2 982 0 6 -- Chart
1966 9 29 18 48.0 170.0 982 0 6 -- Chart
1966 9 30 00 49.0 176.0 982 0 6 -- Chart
1966 9 30 06 51.0 182.0 994 0 6 -- Chart
Japan Meteorological Agency Best Track Data | Correction Date : 1989-06-01
< Typhoon 196626 1966 Season Typhoon 196628 >

Help